Time;durP1;ratioP1;P1;durP2;ratioP2;P2;SDS_P1;SDS_P2;PMS_P1;PMS_P2;Temp;Humidity;BMP_temperature;BMP_pressure;BME280_temperature;BME280_humidity;BME280_pressure;Samples;Min_cycle;Max_cycle;Signal;HPM_P1;HPM_P2
2022/09/10 00:01:53;;;;;;;3.53;3.07;;;;;;;;;;6271183;28;20434;-78
2022/09/10 00:04:53;;;;;;;19.87;4.90;;;;;;;;;;6281768;28;20116;-78
2022/09/10 00:07:53;;;;;;;2.25;1.95;;;;;;;;;;6271628;28;20430;-78
2022/09/10 00:10:54;;;;;;;5.57;4.60;;;;;;;;;;6251720;28;20021;-79
2022/09/10 00:13:56;;;;;;;6.87;6.13;;;;;;;;;;6283920;28;20017;-78
2022/09/10 00:16:56;;;;;;;5.13;4.63;;;;;;;;;;6278636;28;20099;-79
2022/09/10 00:19:58;;;;;;;3.97;3.47;;;;;;;;;;6271102;28;20094;-78
2022/09/10 00:22:58;;;;;;;;;;;;;;;;;;6262401;28;20104;-79
2022/09/10 00:25:59;;;;;;;11.13;4.13;;;;;;;;;;6272098;28;19927;-78
2022/09/10 00:28:59;;;;;;;7.13;5.90;;;;;;;;;;6273604;28;20059;-78
2022/09/10 00:31:59;;;;;;;7.33;6.70;;;;;;;;;;6277061;28;20024;-78
2022/09/10 00:35:00;;;;;;;5.55;5.03;;;;;;;;;;6250970;28;20025;-78
2022/09/10 00:38:00;;;;;;;5.38;4.88;;;;;;;;;;6267801;28;20416;-78
2022/09/10 00:41:02;;;;;;;9.23;5.83;;;;;;;;;;6245533;28;20021;-78
2022/09/10 00:44:04;;;;;;;10.30;6.10;;;;;;;;;;6260101;28;20083;-79
2022/09/10 00:47:24;;;;;;;5.32;4.80;;;;;;;;;;6258517;28;20013;-78
2022/09/10 00:50:26;;;;;;;14.05;5.75;;;;;;;;;;6273443;28;20072;-78
2022/09/10 00:53:26;;;;;;;;;;;;;;;;;;6284195;28;20024;-78
2022/09/10 00:56:27;;;;;;;5.35;4.95;;;;;;;;;;6277772;28;19952;-78
2022/09/10 00:59:27;;;;;;;3.70;3.07;;;;;;;;;;6250829;28;20072;-78
2022/09/10 01:02:27;;;;;;;5.73;5.27;;;;;;;;;;6251974;28;20029;-78
2022/09/10 01:05:28;;;;;;;6.10;3.80;;;;;;;;;;6255120;28;20039;-78
2022/09/10 01:08:28;;;;;;;5.17;3.50;;;;;;;;;;6279770;28;20449;-79
2022/09/10 01:11:30;;;;;;;3.83;3.43;;;;;;;;;;6248681;28;20020;-79
2022/09/10 01:14:50;;;;;;;14.70;5.75;;;;;;;;;;6253731;28;20124;-79
2022/09/10 01:18:02;;;;;;;5.47;4.97;;;;;;;;;;6276893;28;20043;-79
2022/09/10 01:21:02;;;;;;;;;;;;;;;;;;6273167;28;20500;-78
2022/09/10 01:24:23;;;;;;;8.63;5.30;;;;;;;;;;6252618;28;20336;-78
2022/09/10 01:27:38;;;;;;;5.60;4.20;;;;;;;;;;6271377;28;20074;-78
2022/09/10 01:30:41;;;;;;;5.28;4.43;;;;;;;;;;6253406;28;20041;-79
2022/09/10 01:33:46;;;;;;;6.28;3.90;;;;;;;;;;6283961;28;20610;-79
2022/09/10 01:36:47;;;;;;;4.35;4.00;;;;;;;;;;6244990;28;20566;-78
2022/09/10 01:39:48;;;;;;;;;;;;;;;;;;6270166;28;20009;-79
2022/09/10 01:42:48;;;;;;;3.08;2.88;;;;;;;;;;6257935;28;20510;-79
2022/09/10 01:45:55;;;;;;;1.77;1.67;;;;;;;;;;6256720;28;20021;-79
2022/09/10 01:49:07;;;;;;;6.88;6.35;;;;;;;;;;6274985;28;20074;-78
2022/09/10 01:52:27;;;;;;;8.25;6.05;;;;;;;;;;6283260;28;20468;-78
2022/09/10 01:55:33;;;;;;;17.52;5.05;;;;;;;;;;6250723;28;20028;-78
2022/09/10 01:58:38;;;;;;;2.83;2.25;;;;;;;;;;6278036;28;20499;-78
2022/09/10 02:01:43;;;;;;;9.35;5.25;;;;;;;;;;6269747;28;20503;-77
2022/09/10 02:04:45;;;;;;;2.50;1.95;;;;;;;;;;6277213;28;20071;-77
2022/09/10 02:07:47;;;;;;;2.13;2.00;;;;;;;;;;6278716;28;20016;-78
2022/09/10 02:10:58;;;;;;;6.50;3.25;;;;;;;;;;6263919;28;20020;-78
2022/09/10 02:13:58;;;;;;;3.38;2.75;;;;;;;;;;6267185;28;20350;-77
2022/09/10 02:16:59;;;;;;;2.07;1.47;;;;;;;;;;6265702;28;20037;-77
2022/09/10 02:20:03;;;;;;;3.67;3.22;;;;;;;;;;6252994;28;20116;-77
2022/09/10 02:23:04;;;;;;;4.65;2.58;;;;;;;;;;6272784;28;20020;-77
2022/09/10 02:26:04;;;;;;;2.87;2.17;;;;;;;;;;6254617;28;20044;-77
2022/09/10 02:29:05;;;;;;;7.83;4.30;;;;;;;;;;6266675;28;20125;-77
2022/09/10 02:32:07;;;;;;;2.77;2.47;;;;;;;;;;6276253;28;20491;-77
2022/09/10 02:35:07;;;;;;;2.58;2.38;;;;;;;;;;6272451;28;20467;-79
2022/09/10 02:38:08;;;;;;;5.57;4.70;;;;;;;;;;6272468;28;20025;-78
2022/09/10 02:41:09;;;;;;;3.88;3.58;;;;;;;;;;6279653;28;20122;-78
2022/09/10 02:44:09;;;;;;;4.40;2.63;;;;;;;;;;6266925;28;20361;-78
2022/09/10 02:47:09;;;;;;;3.22;1.98;;;;;;;;;;6262199;28;20432;-78
2022/09/10 02:50:10;;;;;;;2.30;2.20;;;;;;;;;;6274646;28;20021;-78
2022/09/10 02:53:12;;;;;;;1.20;0.80;;;;;;;;;;6283600;28;20385;-78
2022/09/10 02:56:12;;;;;;;2.35;1.77;;;;;;;;;;6258437;28;20071;-79
2022/09/10 02:59:13;;;;;;;2.23;1.57;;;;;;;;;;6282221;28;20024;-78
2022/09/10 03:02:13;;;;;;;3.20;2.30;;;;;;;;;;6280702;28;20509;-77
2022/09/10 03:05:13;;;;;;;5.80;4.85;;;;;;;;;;6274895;28;20512;-77
2022/09/10 03:08:13;;;;;;;1.63;1.63;;;;;;;;;;6277792;28;20021;-77
2022/09/10 03:11:15;;;;;;;0.43;0.43;;;;;;;;;;6272271;28;20040;-78
2022/09/10 03:14:19;;;;;;;1.95;1.85;;;;;;;;;;6272370;28;20024;-78
2022/09/10 03:17:19;;;;;;;4.50;2.38;;;;;;;;;;6276049;28;20013;-78
2022/09/10 03:20:21;;;;;;;1.30;1.30;;;;;;;;;;6257948;28;20017;-79
2022/09/10 03:23:22;;;;;;;2.67;2.13;;;;;;;;;;6272385;28;20026;-78
2022/09/10 03:26:24;;;;;;;2.77;2.57;;;;;;;;;;6266738;28;20265;-78
2022/09/10 03:29:24;;;;;;;0.50;0.50;;;;;;;;;;6258719;28;20033;-77
2022/09/10 03:32:24;;;;;;;0.93;0.93;;;;;;;;;;6278036;28;20039;-78
2022/09/10 03:35:25;;;;;;;4.83;2.63;;;;;;;;;;6282577;28;20082;-78
2022/09/10 03:38:25;;;;;;;2.97;1.48;;;;;;;;;;6274696;28;20185;-77
2022/09/10 03:41:27;;;;;;;1.73;1.63;;;;;;;;;;6249936;28;20027;-77
2022/09/10 03:44:27;;;;;;;3.28;3.10;;;;;;;;;;6274150;28;20361;-78
2022/09/10 03:47:27;;;;;;;0.85;0.85;;;;;;;;;;6274818;28;20053;-77
2022/09/10 03:50:27;;;;;;;2.13;1.70;;;;;;;;;;6270831;28;20020;-77
2022/09/10 03:53:27;;;;;;;2.30;2.13;;;;;;;;;;6280615;28;20103;-78
2022/09/10 03:56:28;;;;;;;2.13;1.93;;;;;;;;;;6273396;28;20012;-77
2022/09/10 03:59:28;;;;;;;2.43;2.17;;;;;;;;;;6258861;28;20025;-77
2022/09/10 04:02:28;;;;;;;3.50;3.20;;;;;;;;;;6285277;28;20017;-77
2022/09/10 04:05:29;;;;;;;0.98;0.98;;;;;;;;;;6284493;28;20099;-76
2022/09/10 04:08:29;;;;;;;3.28;2.63;;;;;;;;;;6272697;28;20127;-77
2022/09/10 04:11:29;;;;;;;5.73;3.53;;;;;;;;;;6275857;28;20023;-77
2022/09/10 04:14:30;;;;;;;2.27;1.50;;;;;;;;;;6264727;28;20021;-77
2022/09/10 04:17:30;;;;;;;3.10;2.37;;;;;;;;;;6281056;28;20016;-77
2022/09/10 04:20:30;;;;;;;2.77;2.53;;;;;;;;;;6272506;28;20044;-77
2022/09/10 04:23:32;;;;;;;3.53;3.30;;;;;;;;;;6278143;28;20052;-77
2022/09/10 04:26:32;;;;;;;1.63;1.52;;;;;;;;;;6271815;28;20067;-77
2022/09/10 04:29:32;;;;;;;4.68;3.30;;;;;;;;;;6265628;28;20463;-78
2022/09/10 04:32:32;;;;;;;1.75;1.58;;;;;;;;;;6268526;28;20013;-77
2022/09/10 04:35:32;;;;;;;2.43;2.20;;;;;;;;;;6272548;28;20017;-78
2022/09/10 04:38:33;;;;;;;3.77;3.43;;;;;;;;;;6272480;28;20491;-78
2022/09/10 04:41:33;;;;;;;4.87;3.03;;;;;;;;;;6270551;28;20025;-77
2022/09/10 04:44:34;;;;;;;1.23;1.23;;;;;;;;;;6261631;28;20070;-77
2022/09/10 04:47:34;;;;;;;1.77;1.67;;;;;;;;;;6265910;28;20113;-77
2022/09/10 04:50:34;;;;;;;5.23;3.23;;;;;;;;;;6265743;28;20014;-78
2022/09/10 04:53:34;;;;;;;5.65;4.18;;;;;;;;;;6264117;28;20384;-78
2022/09/10 04:56:35;;;;;;;2.95;1.58;;;;;;;;;;6264439;28;20020;-79
2022/09/10 04:59:37;;;;;;;2.97;2.80;;;;;;;;;;6259905;28;20025;-79
2022/09/10 05:02:37;;;;;;;3.00;2.60;;;;;;;;;;6248534;28;20040;-78
2022/09/10 05:05:38;;;;;;;3.10;2.10;;;;;;;;;;6257052;28;20690;-78
2022/09/10 05:08:39;;;;;;;29.38;6.60;;;;;;;;;;6268005;28;20131;-78
2022/09/10 05:11:39;;;;;;;4.03;3.03;;;;;;;;;;6269139;28;20371;-77
2022/09/10 05:14:39;;;;;;;3.72;1.60;;;;;;;;;;6245041;28;20009;-77
2022/09/10 05:17:39;;;;;;;2.80;2.30;;;;;;;;;;6274775;28;20088;-77
2022/09/10 05:20:41;;;;;;;3.10;2.83;;;;;;;;;;6270045;28;20040;-76
2022/09/10 05:23:41;;;;;;;1.02;0.95;;;;;;;;;;6242589;28;20045;-77
2022/09/10 05:26:42;;;;;;;4.00;1.97;;;;;;;;;;6265338;28;20043;-77
2022/09/10 05:29:43;;;;;;;1.17;1.17;;;;;;;;;;6261645;28;20524;-77
2022/09/10 05:32:44;;;;;;;2.77;2.57;;;;;;;;;;6266836;28;20410;-77
2022/09/10 05:35:46;;;;;;;2.03;1.93;;;;;;;;;;6279710;28;20502;-77
2022/09/10 05:38:47;;;;;;;2.70;1.80;;;;;;;;;;6272601;28;20492;-78
2022/09/10 05:41:47;;;;;;;1.58;1.48;;;;;;;;;;6264296;28;20025;-77
2022/09/10 05:44:47;;;;;;;2.37;1.97;;;;;;;;;;6264242;28;20014;-78
2022/09/10 05:47:48;;;;;;;3.40;3.10;;;;;;;;;;6259943;28;20058;-77
2022/09/10 05:50:48;;;;;;;2.03;1.93;;;;;;;;;;6270692;28;20475;-77
2022/09/10 05:53:48;;;;;;;5.50;3.63;;;;;;;;;;6242561;28;20021;-76
2022/09/10 05:56:48;;;;;;;8.10;2.80;;;;;;;;;;6240906;28;20511;-77
2022/09/10 05:59:49;;;;;;;3.58;3.30;;;;;;;;;;6255362;28;20071;-77
2022/09/10 06:02:49;;;;;;;1.80;1.70;;;;;;;;;;6253267;28;20024;-77
2022/09/10 06:05:50;;;;;;;8.80;4.27;;;;;;;;;;6258543;28;20492;-78
2022/09/10 06:08:50;;;;;;;0.73;0.60;;;;;;;;;;6266755;28;20049;-79
2022/09/10 06:11:52;;;;;;;2.53;2.17;;;;;;;;;;6246063;28;20104;-79
2022/09/10 06:14:52;;;;;;;2.30;1.95;;;;;;;;;;6268507;28;20412;-78
2022/09/10 06:17:54;;;;;;;8.87;3.00;;;;;;;;;;6271918;28;20031;-80
2022/09/10 06:21:05;;;;;;;1.85;1.73;;;;;;;;;;6276520;28;20017;-79
2022/09/10 06:24:06;;;;;;;2.33;2.20;;;;;;;;;;6268681;28;20441;-80
2022/09/10 06:27:07;;;;;;;1.70;1.33;;;;;;;;;;6274584;28;20013;-80
2022/09/10 06:30:07;;;;;;;1.02;1.02;;;;;;;;;;6257060;28;20045;-80
2022/09/10 06:33:07;;;;;;;2.53;2.13;;;;;;;;;;6257920;28;20009;-80
2022/09/10 06:36:08;;;;;;;2.43;1.27;;;;;;;;;;6266110;28;20009;-80
2022/09/10 06:39:08;;;;;;;2.70;1.37;;;;;;;;;;6275338;28;20384;-80
2022/09/10 06:42:08;;;;;;;8.43;2.80;;;;;;;;;;6273836;28;20078;-80
2022/09/10 06:45:09;;;;;;;1.07;1.07;;;;;;;;;;6269075;28;20043;-80
2022/09/10 06:48:09;;;;;;;3.63;3.43;;;;;;;;;;6253902;28;20119;-80
2022/09/10 06:51:11;;;;;;;2.70;2.57;;;;;;;;;;6255779;28;20035;-80
2022/09/10 06:54:11;;;;;;;3.08;1.48;;;;;;;;;;6276747;28;20005;-80
2022/09/10 06:57:12;;;;;;;1.73;0.93;;;;;;;;;;6269016;28;20052;-80
2022/09/10 07:00:13;;;;;;;1.23;1.23;;;;;;;;;;6268674;28;20500;-79
2022/09/10 07:03:14;;;;;;;1.13;1.13;;;;;;;;;;6275884;28;20016;-81
2022/09/10 07:06:16;;;;;;;1.95;1.70;;;;;;;;;;6271844;28;20088;-82
2022/09/10 07:09:16;;;;;;;2.20;2.00;;;;;;;;;;6273258;28;20029;-82
2022/09/10 07:12:16;;;;;;;4.20;2.00;;;;;;;;;;6255930;28;20039;-82
2022/09/10 07:15:16;;;;;;;4.13;3.80;;;;;;;;;;6245797;28;20017;-82
2022/09/10 07:18:17;;;;;;;2.17;1.98;;;;;;;;;;6248250;28;20495;-81
2022/09/10 07:21:18;;;;;;;2.60;2.50;;;;;;;;;;6264573;28;20075;-81
2022/09/10 07:24:20;;;;;;;3.17;2.60;;;;;;;;;;6266003;28;20024;-81
2022/09/10 07:27:20;;;;;;;4.88;3.40;;;;;;;;;;6265865;28;20507;-81
2022/09/10 07:30:21;;;;;;;2.60;2.40;;;;;;;;;;6265806;28;20041;-83
2022/09/10 07:33:21;;;;;;;4.07;3.73;;;;;;;;;;6265712;28;20107;-81
2022/09/10 07:36:22;;;;;;;5.17;2.70;;;;;;;;;;6248541;28;20035;-81
2022/09/10 07:39:22;;;;;;;5.63;1.83;;;;;;;;;;6246984;28;20108;-81
2022/09/10 07:42:24;;;;;;;3.97;3.73;;;;;;;;;;6256480;28;20025;-82
2022/09/10 07:45:25;;;;;;;6.85;3.85;;;;;;;;;;6268191;28;20017;-82
2022/09/10 07:48:26;;;;;;;2.77;2.50;;;;;;;;;;6260188;28;20436;-80
2022/09/10 07:51:28;;;;;;;0.88;0.88;;;;;;;;;;6242871;28;20052;-80
2022/09/10 07:54:28;;;;;;;;;;;;;;;;;;6258251;28;20565;-81
2022/09/10 07:57:30;;;;;;;4.10;3.78;;;;;;;;;;6267620;28;20377;-80
2022/09/10 08:00:30;;;;;;;2.88;2.67;;;;;;;;;;6277284;28;20051;-81
2022/09/10 08:03:30;;;;;;;4.20;3.90;;;;;;;;;;6288527;28;20024;-81
2022/09/10 08:06:31;;;;;;;2.10;1.90;;;;;;;;;;6271205;28;20035;-81
2022/09/10 08:09:32;;;;;;;4.67;3.27;;;;;;;;;;6257568;28;20028;-81
2022/09/10 08:12:35;;;;;;;3.13;2.85;;;;;;;;;;6279049;28;20048;-81
2022/09/10 08:15:39;;;;;;;2.47;2.25;;;;;;;;;;6261269;28;20024;-81
2022/09/10 08:18:40;;;;;;;3.17;2.55;;;;;;;;;;6268618;28;20025;-80
2022/09/10 08:21:41;;;;;;;17.33;4.53;;;;;;;;;;6272917;28;20041;-81
2022/09/10 08:24:41;;;;;;;11.47;4.33;;;;;;;;;;6274367;28;20146;-81
2022/09/10 08:27:41;;;;;;;5.70;5.20;;;;;;;;;;6255635;28;20024;-81
2022/09/10 08:30:41;;;;;;;5.30;4.93;;;;;;;;;;6295451;28;20040;-81
2022/09/10 08:33:46;;;;;;;16.52;6.72;;;;;;;;;;6279062;28;20024;-81
2022/09/10 08:36:46;;;;;;;4.88;4.28;;;;;;;;;;6279271;28;20028;-82
2022/09/10 08:39:46;;;;;;;8.83;3.47;;;;;;;;;;6275950;28;20116;-82
2022/09/10 08:42:48;;;;;;;3.40;2.70;;;;;;;;;;6258905;28;20024;-81
2022/09/10 08:45:49;;;;;;;4.20;3.80;;;;;;;;;;6269743;28;20051;-82
2022/09/10 08:48:53;;;;;;;4.73;3.87;;;;;;;;;;6255726;28;20075;-81
2022/09/10 08:52:03;;;;;;;2.15;2.03;;;;;;;;;;6269247;28;20013;-81
2022/09/10 08:55:11;;;;;;;5.30;3.88;;;;;;;;;;6258021;28;20075;-81
2022/09/10 08:58:13;;;;;;;4.15;3.80;;;;;;;;;;6243340;28;20017;-81
2022/09/10 09:01:20;;;;;;;2.90;2.70;;;;;;;;;;6253096;28;20032;-80
2022/09/10 09:04:39;;;;;;;6.30;2.97;;;;;;;;;;6258410;28;20054;-80
2022/09/10 09:07:39;;;;;;;4.57;3.70;;;;;;;;;;6249188;28;20119;-80
2022/09/10 09:10:43;;;;;;;3.20;3.00;;;;;;;;;;6242549;28;20025;-80
2022/09/10 09:13:59;;;;;;;3.15;2.92;;;;;;;;;;6249244;28;20450;-80
2022/09/10 09:17:12;;;;;;;2.10;1.95;;;;;;;;;;6248485;28;20057;-81
2022/09/10 09:20:21;;;;;;;3.25;2.55;;;;;;;;;;6255998;28;20025;-80
2022/09/10 09:23:23;;;;;;;4.35;3.05;;;;;;;;;;6241635;28;20029;-81
2022/09/10 09:26:28;;;;;;;1.80;1.70;;;;;;;;;;6256520;28;20028;-80
2022/09/10 09:29:34;;;;;;;20.13;3.30;;;;;;;;;;6255476;28;20516;-81
2022/09/10 09:32:38;;;;;;;3.85;3.47;;;;;;;;;;6238332;28;20017;-82
2022/09/10 09:35:45;;;;;;;1.98;1.88;;;;;;;;;;6260796;28;20025;-81
2022/09/10 09:38:47;;;;;;;4.25;2.75;;;;;;;;;;6239166;28;20079;-81
2022/09/10 09:41:48;;;;;;;5.75;2.95;;;;;;;;;;6266072;28;20033;-80
2022/09/10 09:45:01;;;;;;;3.53;2.92;;;;;;;;;;6270147;28;20061;-81
2022/09/10 09:48:02;;;;;;;3.40;2.97;;;;;;;;;;6259237;28;20045;-81
2022/09/10 09:51:03;;;;;;;3.35;3.15;;;;;;;;;;6281062;28;20032;-81
2022/09/10 09:54:08;;;;;;;5.53;2.93;;;;;;;;;;6282207;28;20017;-81
2022/09/10 09:57:13;;;;;;;2.92;1.02;;;;;;;;;;6259916;28;20025;-81
2022/09/10 10:00:36;;;;;;;3.97;3.63;;;;;;;;;;6248749;28;20061;-80
2022/09/10 10:03:47;;;;;;;1.75;1.65;;;;;;;;;;6261507;28;20033;-79
2022/09/10 10:06:53;;;;;;;1.35;1.33;;;;;;;;;;6268609;28;20411;-79
2022/09/10 10:09:53;;;;;;;1.27;1.27;;;;;;;;;;6261797;28;20024;-80
2022/09/10 10:12:54;;;;;;;2.17;1.97;;;;;;;;;;6271639;28;20547;-79
2022/09/10 10:15:54;;;;;;;4.67;2.50;;;;;;;;;;6264801;28;20010;-80
2022/09/10 10:18:54;;;;;;;2.10;1.90;;;;;;;;;;6254821;28;20013;-80
2022/09/10 10:21:54;;;;;;;4.20;2.47;;;;;;;;;;6273062;28;20017;-80
2022/09/10 10:24:55;;;;;;;4.13;2.03;;;;;;;;;;6277529;28;20020;-80
2022/09/10 10:27:55;;;;;;;7.60;2.80;;;;;;;;;;6279089;28;20013;-80
2022/09/10 10:30:59;;;;;;;1.92;1.80;;;;;;;;;;6267351;28;20056;-79
2022/09/10 10:34:16;;;;;;;0.88;0.88;;;;;;;;;;6288922;28;20483;-79
2022/09/10 10:37:45;;;;;;;1.35;1.25;;;;;;;;;;6262732;28;20021;-80
2022/09/10 10:40:55;;;;;;;2.03;1.45;;;;;;;;;;6238020;28;20033;-79
2022/09/10 10:44:16;;;;;;;2.08;1.30;;;;;;;;;;6292353;28;20021;-79
2022/09/10 10:47:56;;;;;;;17.50;3.25;;;;;;;;;;6267856;28;20021;-79
2022/09/10 10:51:20;;;;;;;3.90;2.80;;;;;;;;;;6151517;28;20066;-79
2022/09/10 10:54:32;;;;;;;0.82;0.82;;;;;;;;;;6160991;28;20054;-80
2022/09/10 10:57:32;;;;;;;;;;;;;;;;;;6254194;28;20024;-80
2022/09/10 11:00:40;;;;;;;2.13;1.75;;;;;;;;;;6248418;28;19913;-79
2022/09/10 11:03:47;;;;;;;1.90;1.75;;;;;;;;;;6253802;28;20487;-80
2022/09/10 11:06:50;;;;;;;1.85;1.50;;;;;;;;;;6269218;28;20021;-79
2022/09/10 11:09:57;;;;;;;2.95;2.67;;;;;;;;;;6262347;28;20081;-79
2022/09/10 11:13:08;;;;;;;2.25;1.52;;;;;;;;;;6277597;28;20460;-80
2022/09/10 11:16:13;;;;;;;2.78;1.83;;;;;;;;;;6271177;28;20027;-79
2022/09/10 11:19:20;;;;;;;2.75;1.67;;;;;;;;;;6288567;28;20585;-79
2022/09/10 11:22:30;;;;;;;9.93;1.48;;;;;;;;;;6257672;28;20021;-80
2022/09/10 11:25:38;;;;;;;4.75;1.75;;;;;;;;;;6264004;28;20044;-80
2022/09/10 11:28:42;;;;;;;2.55;2.35;;;;;;;;;;6275911;28;20448;-79
2022/09/10 11:31:45;;;;;;;4.35;1.95;;;;;;;;;;6259082;28;20044;-79
2022/09/10 11:35:03;;;;;;;5.78;2.50;;;;;;;;;;6272285;28;20017;-79
2022/09/10 11:38:23;;;;;;;1.95;1.85;;;;;;;;;;6278179;28;20047;-80
2022/09/10 11:41:26;;;;;;;1.02;0.98;;;;;;;;;;6263411;28;20052;-79
2022/09/10 11:44:27;;;;;;;2.38;2.05;;;;;;;;;;6267851;28;20020;-80
2022/09/10 11:47:33;;;;;;;2.77;2.57;;;;;;;;;;6275191;28;20031;-80
2022/09/10 11:50:44;;;;;;;1.40;1.38;;;;;;;;;;6266793;28;20507;-79
2022/09/10 11:53:44;;;;;;;2.17;1.98;;;;;;;;;;6273293;28;20099;-79
2022/09/10 11:56:49;;;;;;;1.60;1.50;;;;;;;;;;6276518;28;20362;-79
2022/09/10 12:00:08;;;;;;;1.25;1.25;;;;;;;;;;6262914;28;20075;-80
2022/09/10 12:03:28;;;;;;;1.90;1.80;;;;;;;;;;6271424;28;20044;-79
2022/09/10 12:06:41;;;;;;;4.65;3.38;;;;;;;;;;6274540;28;20021;-79
2022/09/10 12:09:54;;;;;;;3.65;3.35;;;;;;;;;;6274801;28;20048;-80
2022/09/10 12:12:54;;;;;;;0.63;0.63;;;;;;;;;;6274453;28;20021;-80
2022/09/10 12:15:57;;;;;;;1.65;1.55;;;;;;;;;;6251785;28;20031;-79
2022/09/10 12:18:57;;;;;;;1.95;1.85;;;;;;;;;;6256911;28;20059;-78
2022/09/10 12:22:00;;;;;;;0.70;0.70;;;;;;;;;;6269979;28;20025;-79
2022/09/10 12:25:02;;;;;;;3.03;2.33;;;;;;;;;;6279303;28;20085;-78
2022/09/10 12:28:06;;;;;;;4.00;1.33;;;;;;;;;;6259915;28;20016;-78
2022/09/10 12:31:07;;;;;;;5.85;5.28;;;;;;;;;;6260514;28;20050;-79
2022/09/10 12:34:15;;;;;;;24.30;20.10;;;;;;;;;;6258760;28;20094;-79
2022/09/10 12:37:19;;;;;;;11.23;8.15;;;;;;;;;;6251467;28;20021;-79
2022/09/10 12:40:25;;;;;;;4.55;3.72;;;;;;;;;;6272769;28;20032;-78
2022/09/10 12:43:38;;;;;;;1.83;1.70;;;;;;;;;;6257551;28;20091;-79
2022/09/10 12:46:39;;;;;;;9.77;2.25;;;;;;;;;;6261046;28;20052;-78
2022/09/10 12:49:45;;;;;;;2.13;1.65;;;;;;;;;;6250903;28;20464;-78
2022/09/10 12:52:51;;;;;;;2.92;2.63;;;;;;;;;;6245581;28;20052;-79
2022/09/10 12:55:58;;;;;;;6.68;4.22;;;;;;;;;;6259391;28;20128;-79
2022/09/10 12:58:59;;;;;;;4.90;2.80;;;;;;;;;;6258760;28;20029;-79
2022/09/10 13:01:59;;;;;;;7.50;6.38;;;;;;;;;;6241082;28;20025;-78
2022/09/10 13:05:01;;;;;;;3.90;3.10;;;;;;;;;;6246919;28;20048;-79
2022/09/10 13:08:24;;;;;;;7.68;6.78;;;;;;;;;;6265617;28;20064;-79
2022/09/10 13:11:25;;;;;;;32.55;10.50;;;;;;;;;;6262305;28;20547;-79
2022/09/10 13:14:27;;;;;;;13.38;10.88;;;;;;;;;;6243664;28;20021;-79
2022/09/10 13:17:50;;;;;;;8.02;6.65;;;;;;;;;;6275529;28;20107;-79
2022/09/10 13:20:51;;;;;;;6.53;4.45;;;;;;;;;;6220246;28;20036;-78
2022/09/10 13:23:52;;;;;;;4.07;3.60;;;;;;;;;;6282225;28;20018;-79
2022/09/10 13:27:01;;;;;;;5.68;4.82;;;;;;;;;;6260785;28;20024;-79
2022/09/10 13:30:16;;;;;;;9.38;3.30;;;;;;;;;;6247624;28;20052;-79
2022/09/10 13:33:16;;;;;;;3.20;1.52;;;;;;;;;;6242407;28;20027;-79
2022/09/10 13:36:36;;;;;;;3.50;3.20;;;;;;;;;;6277940;28;20202;-79
2022/09/10 13:40:00;;;;;;;10.20;3.35;;;;;;;;;;6260161;28;20111;-79
2022/09/10 13:43:15;;;;;;;18.20;12.20;;;;;;;;;;6247097;28;20411;-79
2022/09/10 13:46:40;;;;;;;2.65;2.45;;;;;;;;;;6261493;28;20476;-79
2022/09/10 13:49:40;;;;;;;5.45;3.33;;;;;;;;;;6239422;28;20029;-78
2022/09/10 13:52:43;;;;;;;1.20;1.20;;;;;;;;;;6257627;28;20005;-79
2022/09/10 13:55:47;;;;;;;1.65;1.55;;;;;;;;;;6256630;28;20016;-79
2022/09/10 13:58:53;;;;;;;4.22;2.25;;;;;;;;;;6288486;28;20119;-79
2022/09/10 14:01:54;;;;;;;5.80;4.78;;;;;;;;;;6274744;28;20108;-78
2022/09/10 14:04:54;;;;;;;1.25;1.15;;;;;;;;;;6285464;28;20021;-80
2022/09/10 14:07:56;;;;;;;1.30;1.23;;;;;;;;;;6281983;28;20020;-78
2022/09/10 14:10:56;;;;;;;5.22;1.63;;;;;;;;;;6269466;28;20029;-78
2022/09/10 14:13:59;;;;;;;2.23;1.13;;;;;;;;;;6288571;28;20121;-78
2022/09/10 14:17:22;;;;;;;0.47;0.47;;;;;;;;;;6264478;28;20020;-78
2022/09/10 14:20:27;;;;;;;3.50;2.72;;;;;;;;;;6268227;28;20029;-79
2022/09/10 14:23:28;;;;;;;4.03;3.53;;;;;;;;;;6286837;28;20028;-79
2022/09/10 14:26:29;;;;;;;3.67;1.63;;;;;;;;;;6284921;28;20024;-79
2022/09/10 14:29:29;;;;;;;;;;;;;;;;;;6276333;28;20373;-79
2022/09/10 14:32:31;;;;;;;1.15;1.08;;;;;;;;;;6263585;28;20369;-80
2022/09/10 14:35:39;;;;;;;0.20;0.20;;;;;;;;;;6258229;28;20013;-80
2022/09/10 14:38:41;;;;;;;1.23;1.10;;;;;;;;;;6265243;28;20432;-80
2022/09/10 14:41:42;;;;;;;0.40;0.40;;;;;;;;;;6277350;28;20009;-79
2022/09/10 14:44:42;;;;;;;2.55;1.98;;;;;;;;;;6266572;28;20523;-80
2022/09/10 14:47:49;;;;;;;0.17;0.17;;;;;;;;;;6249804;28;20085;-79
2022/09/10 14:50:49;;;;;;;2.90;1.40;;;;;;;;;;6257988;28;20059;-79
2022/09/10 14:53:53;;;;;;;1.10;0.65;;;;;;;;;;6279336;28;20017;-80
2022/09/10 14:56:57;;;;;;;0.98;0.98;;;;;;;;;;6258583;28;20128;-80
2022/09/10 14:59:58;;;;;;;1.40;0.77;;;;;;;;;;6256145;28;20021;-80
2022/09/10 15:02:59;;;;;;;0.15;0.15;;;;;;;;;;6271366;28;20548;-80
2022/09/10 15:06:00;;;;;;;0.13;0.13;;;;;;;;;;6251228;28;20037;-80
2022/09/10 15:09:00;;;;;;;0.52;0.52;;;;;;;;;;6255038;28;20024;-79
2022/09/10 15:12:04;;;;;;;1.53;1.30;;;;;;;;;;6256896;28;20545;-79
2022/09/10 15:15:04;;;;;;;0.65;0.65;;;;;;;;;;6264292;28;20032;-80
2022/09/10 15:18:10;;;;;;;2.33;1.30;;;;;;;;;;6273178;28;20017;-79
2022/09/10 15:21:12;;;;;;;0.20;0.20;;;;;;;;;;6257817;28;20017;-79
2022/09/10 15:24:14;;;;;;;0.77;0.77;;;;;;;;;;6261537;28;20027;-80
2022/09/10 15:27:15;;;;;;;1.38;1.27;;;;;;;;;;6254714;28;20048;-80
2022/09/10 15:30:15;;;;;;;2.10;1.77;;;;;;;;;;6263132;28;20446;-80
2022/09/10 15:33:15;;;;;;;2.17;2.00;;;;;;;;;;6255823;28;20425;-80
2022/09/10 15:36:15;;;;;;;3.83;2.13;;;;;;;;;;6278051;28;20020;-82
2022/09/10 15:39:16;;;;;;;5.43;2.13;;;;;;;;;;6259152;28;20032;-80
2022/09/10 15:42:16;;;;;;;3.38;3.00;;;;;;;;;;6287720;28;20039;-79
2022/09/10 15:45:17;;;;;;;1.20;1.10;;;;;;;;;;6292587;28;20199;-80
2022/09/10 15:48:17;;;;;;;1.52;1.42;;;;;;;;;;6255166;28;20036;-80
2022/09/10 15:51:21;;;;;;;3.22;2.17;;;;;;;;;;6276776;28;20043;-80
2022/09/10 15:54:22;;;;;;;8.57;3.17;;;;;;;;;;6250001;28;20081;-80
2022/09/10 15:57:23;;;;;;;2.20;2.10;;;;;;;;;;6252896;28;20388;-80
2022/09/10 16:00:23;;;;;;;2.00;1.87;;;;;;;;;;6256790;28;20021;-79
2022/09/10 16:03:24;;;;;;;1.73;1.10;;;;;;;;;;6279690;28;20024;-79
2022/09/10 16:06:26;;;;;;;2.35;1.25;;;;;;;;;;6283390;28;20032;-79
2022/09/10 16:09:26;;;;;;;1.75;1.65;;;;;;;;;;6274169;28;20017;-79
2022/09/10 16:12:27;;;;;;;11.63;4.07;;;;;;;;;;6278964;28;20054;-81
2022/09/10 16:15:27;;;;;;;1.77;1.67;;;;;;;;;;6262217;28;20025;-80
2022/09/10 16:18:28;;;;;;;1.33;1.23;;;;;;;;;;6257029;28;20087;-80
2022/09/10 16:21:33;;;;;;;0.22;0.22;;;;;;;;;;6284398;28;20015;-80
2022/09/10 16:24:33;;;;;;;1.05;1.02;;;;;;;;;;6265201;28;20021;-77
2022/09/10 16:27:33;;;;;;;0.40;0.40;;;;;;;;;;6268502;28;20507;-79
2022/09/10 16:30:34;;;;;;;17.13;1.57;;;;;;;;;;6274237;28;20041;-80
2022/09/10 16:33:34;;;;;;;5.00;3.03;;;;;;;;;;6272410;28;20009;-84
2022/09/10 16:36:38;;;;;;;0.83;0.83;;;;;;;;;;6269184;28;20437;-82
2022/09/10 16:39:39;;;;;;;1.60;1.13;;;;;;;;;;6254837;28;20404;-82
2022/09/10 16:42:39;;;;;;;0.53;0.53;;;;;;;;;;6275001;28;20024;-83
2022/09/10 16:45:48;;;;;;;1.07;1.07;;;;;;;;;;6248850;28;20186;-83
2022/09/10 16:48:50;;;;;;;5.72;3.88;;;;;;;;;;6239108;28;20417;-83
2022/09/10 16:51:50;;;;;;;1.67;1.58;;;;;;;;;;6254757;28;20089;-83
2022/09/10 16:54:51;;;;;;;1.70;1.60;;;;;;;;;;6255664;28;20021;-81
2022/09/10 16:57:51;;;;;;;2.50;2.23;;;;;;;;;;6247130;28;20020;-82
2022/09/10 17:00:52;;;;;;;0.30;0.30;;;;;;;;;;6269602;28;20013;-83
2022/09/10 17:03:52;;;;;;;0.30;0.27;;;;;;;;;;6249016;28;20020;-83
2022/09/10 17:06:52;;;;;;;0.80;0.80;;;;;;;;;;6261417;28;20024;-82
2022/09/10 17:09:52;;;;;;;0.40;0.40;;;;;;;;;;6273957;28;20096;-82
2022/09/10 17:12:53;;;;;;;2.03;1.90;;;;;;;;;;6264518;28;20063;-83
2022/09/10 17:16:10;;;;;;;5.60;2.42;;;;;;;;;;6261861;28;20729;-83
2022/09/10 17:19:13;;;;;;;0.95;0.93;;;;;;;;;;6252849;28;20021;-83
2022/09/10 17:22:13;;;;;;;0.80;0.80;;;;;;;;;;6248307;28;20013;-82
2022/09/10 17:25:13;;;;;;;5.22;3.45;;;;;;;;;;6256393;28;20547;-82
2022/09/10 17:28:13;;;;;;;0.83;0.83;;;;;;;;;;6271040;28;20057;-82
2022/09/10 17:31:13;;;;;;;2.23;2.13;;;;;;;;;;6253374;28;20445;-82
2022/09/10 17:34:14;;;;;;;1.75;1.65;;;;;;;;;;6256775;28;20039;-81
2022/09/10 17:37:15;;;;;;;6.00;3.47;;;;;;;;;;6262332;28;20025;-82
2022/09/10 17:40:15;;;;;;;0.57;0.57;;;;;;;;;;6243765;28;20021;-82
2022/09/10 17:43:16;;;;;;;1.27;1.00;;;;;;;;;;6262563;28;20045;-83
2022/09/10 17:46:17;;;;;;;5.93;0.90;;;;;;;;;;6274709;28;20031;-83
2022/09/10 17:49:18;;;;;;;5.95;4.22;;;;;;;;;;6264222;28;20028;-83
2022/09/10 17:52:18;;;;;;;1.43;1.37;;;;;;;;;;6263056;28;20428;-83
2022/09/10 17:55:18;;;;;;;1.30;1.17;;;;;;;;;;6267017;28;20061;-83
2022/09/10 17:58:19;;;;;;;1.65;1.55;;;;;;;;;;6262310;28;20060;-83
2022/09/10 18:01:21;;;;;;;3.53;2.30;;;;;;;;;;6252279;28;20104;-83
2022/09/10 18:04:22;;;;;;;2.45;2.25;;;;;;;;;;6265598;28;20020;-83
2022/09/10 18:07:22;;;;;;;3.47;2.93;;;;;;;;;;6241328;28;20021;-83
2022/09/10 18:10:23;;;;;;;1.13;1.13;;;;;;;;;;6261581;28;20028;-83
2022/09/10 18:13:23;;;;;;;3.23;2.93;;;;;;;;;;6252952;28;20017;-83
2022/09/10 18:16:25;;;;;;;2.57;1.57;;;;;;;;;;6257136;28;20016;-83
2022/09/10 18:19:25;;;;;;;1.20;1.15;;;;;;;;;;6269042;28;20413;-83